Kimball, Minnesota
Current Conditions -  °F | °C
As of 4:33 AM on Thursday 27 Nov 2014 (Local Time) from KLJF Reporting Station
Clear Clear  
Wind Chill: -14°   Ceiling: Unl
Heat Index: -2°   Visibility: 10mi
Dew Point: -8°   Wind: 6mph
Humidity: 78%   Direction: 310°NW
Pressure: 30.49"   Gusts: NA
Location:  45.31°N, 94.3°W
Report Text: KLJF 271033Z AUTO 31005KT 10SM CLR M19/M22 A3049 RMK AO2
Loading
Personal Weather Stations






























Interactive Weather Map New forecast layout! Learn more

10-Day Weather Forecast

Advertisements
Track Severe Weather on mobile